createdAt,value
2023-09-20T00:00:24.647Z,61.23
2023-09-20T00:01:24.662Z,59.94
2023-09-20T00:02:24.799Z,60.10
2023-09-20T00:03:24.742Z,60.26
2023-09-20T00:04:24.656Z,62.52
2023-09-20T00:05:24.619Z,63.65
2023-09-20T00:06:25.581Z,63.00
2023-09-20T00:07:24.652Z,63.65
2023-09-20T00:08:24.619Z,61.87
2023-09-20T00:09:24.597Z,61.23
2023-09-20T00:10:24.553Z,62.84
2023-09-20T00:11:24.580Z,62.20
2023-09-20T00:12:24.545Z,60.91
2023-09-20T00:13:24.526Z,62.04
2023-09-20T00:14:24.556Z,60.91
2023-09-20T00:15:24.496Z,61.55
2023-09-20T00:16:24.503Z,63.65
2023-09-20T00:17:24.555Z,62.04
2023-09-20T00:18:25.100Z,60.10
2023-09-20T00:19:24.509Z,61.39
2023-09-20T00:20:24.474Z,60.10
2023-09-20T00:21:24.466Z,61.87
2023-09-20T00:22:24.431Z,65.58
2023-09-20T00:23:24.459Z,65.74
2023-09-20T00:24:24.416Z,63.81
2023-09-20T00:25:24.401Z,63.65
2023-09-20T00:26:24.460Z,59.30
2023-09-20T00:27:24.398Z,62.20
2023-09-20T00:28:24.375Z,62.68
2023-09-20T00:29:24.375Z,61.71
2023-09-20T00:30:24.373Z,63.97
2023-09-20T00:31:24.422Z,61.55
2023-09-20T00:32:24.455Z,61.55
2023-09-20T00:33:24.342Z,63.16
2023-09-20T00:34:24.336Z,59.94
2023-09-20T00:35:24.370Z,61.23
2023-09-20T00:36:24.296Z,60.10
2023-09-20T00:37:24.294Z,61.55
2023-09-20T00:38:24.339Z,60.59
2023-09-20T00:39:24.269Z,61.07
2023-09-20T00:40:24.270Z,61.39
2023-09-20T00:41:24.339Z,63.16
2023-09-20T00:42:24.252Z,62.68
2023-09-20T00:43:24.226Z,61.71
2023-09-20T00:44:25.254Z,62.68
2023-09-20T00:45:24.253Z,61.55
2023-09-20T00:46:24.196Z,61.55
2023-09-20T00:47:24.254Z,61.87
2023-09-20T00:48:24.187Z,60.10
2023-09-20T00:49:24.201Z,60.59
2023-09-20T00:50:24.204Z,58.65
2023-09-20T00:51:24.148Z,60.42
2023-09-20T00:52:24.134Z,61.87
2023-09-20T00:53:24.224Z,60.59
2023-09-20T00:54:24.181Z,63.97
2023-09-20T00:55:24.107Z,60.59
2023-09-20T00:56:25.130Z,61.71
2023-09-20T00:57:24.103Z,61.55
2023-09-20T00:58:24.101Z,61.23
2023-09-20T00:59:24.105Z,59.62
2023-09-20T01:00:24.062Z,59.62
2023-09-20T01:01:24.073Z,61.23
2023-09-20T01:02:24.132Z,62.84
2023-09-20T01:03:24.156Z,63.33
2023-09-20T01:04:24.068Z,62.84
2023-09-20T01:05:24.188Z,61.55
2023-09-20T01:06:24.010Z,59.62
2023-09-20T01:07:23.995Z,63.49
2023-09-20T01:08:24.042Z,63.16
2023-09-20T01:09:23.981Z,61.87
2023-09-20T01:10:23.965Z,62.20
2023-09-20T01:11:24.001Z,61.55
2023-09-20T01:12:23.967Z,61.71
2023-09-20T01:13:23.956Z,59.14
2023-09-20T01:14:23.944Z,64.13
2023-09-20T01:15:23.928Z,60.75
2023-09-20T01:16:23.947Z,63.00
2023-09-20T01:17:24.017Z,65.42
2023-09-20T01:18:23.942Z,63.00
2023-09-20T01:19:23.876Z,61.39
2023-09-20T01:20:23.910Z,61.07
2023-09-20T01:21:23.905Z,62.84
2023-09-20T01:22:23.863Z,63.65
2023-09-20T01:23:23.908Z,67.19
2023-09-20T01:24:23.820Z,58.01
2023-09-20T01:25:23.852Z,64.45
2023-09-20T01:26:23.859Z,64.29
2023-09-20T01:27:23.797Z,63.49
2023-09-20T01:28:23.791Z,59.30
2023-09-20T01:29:23.880Z,62.52
2023-09-20T01:30:23.763Z,60.91
2023-09-20T01:31:23.817Z,60.91
2023-09-20T01:32:23.852Z,63.49
2023-09-20T01:33:23.803Z,62.84
2023-09-20T01:34:23.737Z,64.45
2023-09-20T01:35:23.769Z,63.16
2023-09-20T01:36:23.732Z,66.23
2023-09-20T01:37:23.704Z,61.55
2023-09-20T01:38:23.708Z,62.52
2023-09-20T01:39:23.703Z,63.00
2023-09-20T01:40:23.720Z,63.16
2023-09-20T01:41:23.709Z,62.20
2023-09-20T01:42:23.658Z,62.52
2023-09-20T01:43:23.655Z,62.20
2023-09-20T01:44:23.709Z,62.36
2023-09-20T01:45:23.654Z,61.55
2023-09-20T01:46:23.681Z,59.46
2023-09-20T01:47:23.670Z,61.87
2023-09-20T01:48:23.729Z,63.65
2023-09-20T01:49:23.613Z,61.07
2023-09-20T01:50:23.648Z,61.39
2023-09-20T01:51:23.600Z,62.68
2023-09-20T01:52:23.561Z,61.87
2023-09-20T01:53:23.596Z,62.68
2023-09-20T01:54:23.564Z,62.68
2023-09-20T01:55:23.556Z,62.20
2023-09-20T01:56:23.545Z,61.07
2023-09-20T01:57:23.507Z,61.55
2023-09-20T01:58:24.569Z,63.65
2023-09-20T01:59:23.553Z,61.39
2023-09-20T02:00:23.511Z,61.07
2023-09-20T02:01:23.481Z,60.42
2023-09-20T02:02:23.553Z,62.84
2023-09-20T02:03:23.562Z,63.49
2023-09-20T02:04:23.476Z,61.55
2023-09-20T02:05:23.505Z,61.55
2023-09-20T02:06:23.425Z,64.13
2023-09-20T02:07:23.420Z,62.68
2023-09-20T02:08:23.462Z,62.36
2023-09-20T02:09:23.403Z,63.49
2023-09-20T02:10:23.404Z,63.49
2023-09-20T02:11:23.466Z,61.55
2023-09-20T02:12:23.405Z,62.84
2023-09-20T02:13:23.387Z,61.87
2023-09-20T02:14:23.400Z,60.10
2023-09-20T02:15:23.354Z,63.49
2023-09-20T02:16:23.392Z,62.68
2023-09-20T02:17:23.358Z,61.87
2023-09-20T02:18:23.398Z,61.39
2023-09-20T02:19:23.312Z,60.26
2023-09-20T02:20:23.369Z,63.97
2023-09-20T02:21:23.277Z,62.04
2023-09-20T02:22:23.299Z,63.65
2023-09-20T02:23:23.272Z,63.81
2023-09-20T02:24:23.248Z,63.49
2023-09-20T02:25:23.234Z,63.16
2023-09-20T02:26:23.271Z,62.20
2023-09-20T02:27:23.261Z,63.65
2023-09-20T02:28:23.213Z,63.16
2023-09-20T02:29:23.217Z,65.58
2023-09-20T02:30:23.205Z,62.20
2023-09-20T02:31:23.219Z,60.59
2023-09-20T02:32:23.205Z,61.55
2023-09-20T02:33:23.180Z,63.49
2023-09-20T02:34:23.145Z,62.36
2023-09-20T02:35:23.141Z,63.49
2023-09-20T02:36:23.142Z,63.00
2023-09-20T02:37:23.118Z,63.00
2023-09-20T02:38:23.142Z,62.36
2023-09-20T02:39:23.122Z,62.52
2023-09-20T02:40:23.082Z,60.10
2023-09-20T02:41:23.126Z,61.55
2023-09-20T02:42:24.076Z,63.49
2023-09-20T02:43:23.066Z,62.20
2023-09-20T02:44:23.091Z,62.84
2023-09-20T02:45:23.059Z,63.00
2023-09-20T02:46:23.055Z,59.78
2023-09-20T02:47:23.093Z,63.00
2023-09-20T02:48:23.042Z,60.75
2023-09-20T02:49:23.002Z,60.91
2023-09-20T02:50:23.034Z,62.68
2023-09-20T02:51:22.984Z,62.36
2023-09-20T02:52:22.968Z,62.20
2023-09-20T02:53:23.052Z,63.49
2023-09-20T02:54:22.966Z,61.87
2023-09-20T02:55:22.957Z,61.23
2023-09-20T02:56:22.989Z,60.91
2023-09-20T02:57:22.928Z,62.84
2023-09-20T02:58:22.915Z,61.55
2023-09-20T02:59:22.943Z,61.39
2023-09-20T03:00:22.909Z,63.16
2023-09-20T03:01:22.902Z,63.49
2023-09-20T03:02:22.961Z,63.65
2023-09-20T03:03:23.021Z,63.49
2023-09-20T03:04:22.925Z,62.52
2023-09-20T03:05:22.941Z,63.65
2023-09-20T03:06:22.832Z,64.94
2023-09-20T03:07:22.819Z,63.81
2023-09-20T03:08:22.834Z,61.55
2023-09-20T03:09:22.820Z,62.68
2023-09-20T03:10:22.785Z,63.49
2023-09-20T03:11:22.815Z,60.42
2023-09-20T03:12:22.775Z,61.71
2023-09-20T03:13:22.784Z,65.26
2023-09-20T03:14:22.764Z,65.26
2023-09-20T03:15:22.788Z,63.00
2023-09-20T03:16:22.775Z,62.84
2023-09-20T03:17:22.749Z,65.42
2023-09-20T03:18:22.802Z,61.39
2023-09-20T03:19:22.697Z,61.87
2023-09-20T03:20:22.769Z,61.07
2023-09-20T03:21:22.708Z,61.55
2023-09-20T03:22:22.692Z,62.68
2023-09-20T03:23:22.712Z,63.16
2023-09-20T03:24:22.655Z,62.68
2023-09-20T03:25:22.643Z,61.55
2023-09-20T03:26:22.697Z,60.59
2023-09-20T03:27:22.651Z,61.39
2023-09-20T03:28:22.631Z,63.33
2023-09-20T03:29:22.627Z,63.00
2023-09-20T03:30:22.595Z,63.16
2023-09-20T03:31:22.750Z,63.81
2023-09-20T03:32:23.648Z,64.61
2023-09-20T03:33:23.015Z,65.74
2023-09-20T03:34:22.562Z,64.29
2023-09-20T03:35:22.614Z,63.00
2023-09-20T03:36:22.548Z,65.10
2023-09-20T03:37:22.551Z,63.16
2023-09-20T03:38:22.723Z,63.97
2023-09-20T03:39:22.533Z,63.00
2023-09-20T03:40:22.518Z,64.13
2023-09-20T03:41:22.569Z,65.74
2023-09-20T03:42:22.482Z,64.13
2023-09-20T03:43:22.534Z,65.74
2023-09-20T03:44:22.562Z,63.00
2023-09-20T03:45:24.698Z,65.42
2023-09-20T03:46:23.495Z,62.84
2023-09-20T03:47:22.532Z,63.16
2023-09-20T03:48:22.572Z,63.97
2023-09-20T03:49:22.409Z,64.45
2023-09-20T03:50:22.432Z,64.61
2023-09-20T03:51:22.401Z,63.97
2023-09-20T03:52:22.380Z,66.23
2023-09-20T03:53:22.403Z,64.94
2023-09-20T03:54:22.366Z,67.35
2023-09-20T03:55:22.366Z,65.26
2023-09-20T03:56:22.412Z,63.33
2023-09-20T03:57:22.329Z,65.74
2023-09-20T03:58:22.319Z,65.26
2023-09-20T03:59:22.334Z,64.94
2023-09-20T04:00:22.301Z,67.35
2023-09-20T04:01:22.364Z,62.20
2023-09-20T04:02:22.299Z,65.58
2023-09-20T04:03:22.371Z,63.65
2023-09-20T04:04:22.306Z,63.16
2023-09-20T04:05:38.879Z,63.16
2023-09-20T04:06:24.237Z,65.26
2023-09-20T04:07:22.229Z,63.81
2023-09-20T04:08:22.239Z,64.29
2023-09-20T04:09:22.244Z,65.58
2023-09-20T04:10:22.266Z,64.45
2023-09-20T04:11:22.243Z,68.32
2023-09-20T04:12:22.171Z,65.26
2023-09-20T04:13:22.185Z,64.29
2023-09-20T04:14:22.180Z,63.65
2023-09-20T04:15:22.145Z,64.13
2023-09-20T04:16:22.155Z,66.06
2023-09-20T04:17:22.145Z,67.35
2023-09-20T04:18:22.162Z,66.23
2023-09-20T04:19:22.116Z,65.58
2023-09-20T04:20:22.128Z,65.42
2023-09-20T04:21:22.097Z,64.13
2023-09-20T04:22:22.088Z,64.45
2023-09-20T04:23:22.148Z,64.13
2023-09-20T04:24:22.058Z,64.78
2023-09-20T04:25:23.051Z,64.29
2023-09-20T04:26:22.065Z,66.39
2023-09-20T04:27:22.055Z,65.26
2023-09-20T04:28:22.038Z,66.55
2023-09-20T04:29:22.075Z,66.23
2023-09-20T04:30:21.993Z,66.39
2023-09-20T04:31:21.994Z,64.94
2023-09-20T04:32:22.024Z,66.06
2023-09-20T04:33:22.016Z,65.10
2023-09-20T04:34:21.961Z,65.26
2023-09-20T04:35:21.988Z,65.74
2023-09-20T04:36:21.942Z,64.94
2023-09-20T04:37:21.948Z,64.61
2023-09-20T04:38:21.938Z,64.61
2023-09-20T04:39:21.903Z,65.74
2023-09-20T04:40:21.895Z,66.06
2023-09-20T04:41:21.935Z,67.03
2023-09-20T04:42:21.896Z,66.06
2023-09-20T04:43:21.880Z,67.35
2023-09-20T04:44:21.972Z,65.58
2023-09-20T04:45:21.862Z,66.06
2023-09-20T04:46:21.853Z,63.65
2023-09-20T04:47:21.890Z,67.19
2023-09-20T04:48:21.862Z,67.19
2023-09-20T04:49:22.026Z,66.55
2023-09-20T04:50:22.342Z,67.35
2023-09-20T04:51:23.780Z,66.06
2023-09-20T04:52:23.302Z,65.74
2023-09-20T04:53:22.109Z,66.55
2023-09-20T04:54:22.079Z,66.23
2023-09-20T04:55:22.822Z,67.19
2023-09-20T04:56:23.486Z,67.68
2023-09-20T04:57:22.159Z,67.19
2023-09-20T04:58:24.036Z,67.35
2023-09-20T04:59:24.394Z,65.26
2023-09-20T05:00:24.529Z,68.16
2023-09-20T05:01:23.535Z,66.55
2023-09-20T05:02:25.030Z,66.71
2023-09-20T05:03:23.717Z,67.51
2023-09-20T05:04:23.063Z,67.35
2023-09-20T05:05:24.299Z,66.23
2023-09-20T05:06:23.900Z,66.71
2023-09-20T05:07:23.118Z,68.32
2023-09-20T05:08:22.666Z,68.64
2023-09-20T05:09:24.955Z,67.68
2023-09-20T05:10:22.634Z,67.51
2023-09-20T05:11:22.675Z,66.55
2023-09-20T05:12:22.710Z,67.35
2023-09-20T05:13:23.144Z,68.80
2023-09-20T05:14:22.134Z,66.71
2023-09-20T05:15:22.797Z,68.32
2023-09-20T05:16:28.292Z,67.51
2023-09-20T05:17:22.953Z,67.51
2023-09-20T05:18:23.669Z,67.03
2023-09-20T05:19:23.045Z,67.35
2023-09-20T05:20:21.814Z,66.71
2023-09-20T05:21:21.904Z,67.51
2023-09-20T05:22:24.807Z,68.16
2023-09-20T05:23:23.562Z,66.87
2023-09-20T05:24:22.087Z,66.06
2023-09-20T05:25:22.203Z,68.48
2023-09-20T05:26:23.248Z,67.84
2023-09-20T05:27:22.639Z,68.96
2023-09-20T05:28:24.475Z,66.87
2023-09-20T05:29:22.547Z,67.03
2023-09-20T05:30:21.427Z,68.00
2023-09-20T05:31:21.440Z,67.51
2023-09-20T05:32:21.447Z,64.29
2023-09-20T05:33:21.448Z,67.03
2023-09-20T05:34:21.368Z,66.71
2023-09-20T05:35:21.415Z,67.51
2023-09-20T05:36:21.374Z,65.90
2023-09-20T05:37:21.382Z,68.00
2023-09-20T05:38:21.325Z,66.23
2023-09-20T05:39:21.349Z,65.90
2023-09-20T05:40:21.325Z,66.06
2023-09-20T05:41:21.439Z,66.71
2023-09-20T05:42:21.330Z,66.23
2023-09-20T05:43:21.274Z,66.39
2023-09-20T05:44:21.341Z,66.87
2023-09-20T05:45:21.350Z,67.68
2023-09-20T05:46:21.292Z,68.32
2023-09-20T05:47:21.297Z,66.55
2023-09-20T05:48:21.367Z,66.06
2023-09-20T05:49:21.214Z,66.55
2023-09-20T05:50:21.352Z,65.26
2023-09-20T05:51:21.256Z,67.68
2023-09-20T05:52:21.205Z,66.23
2023-09-20T05:53:21.218Z,66.39
2023-09-20T05:54:21.152Z,66.06
2023-09-20T05:55:21.210Z,67.51
2023-09-20T05:56:21.252Z,66.39
2023-09-20T05:57:21.250Z,70.09
2023-09-20T05:58:21.117Z,69.45
2023-09-20T05:59:21.144Z,66.87
2023-09-20T06:00:21.137Z,66.06
2023-09-20T06:01:21.245Z,65.90
2023-09-20T06:02:21.155Z,66.55
2023-09-20T06:03:21.097Z,66.06
2023-09-20T06:04:21.185Z,64.94
2023-09-20T06:05:21.086Z,65.42
2023-09-20T06:06:21.057Z,67.84
2023-09-20T06:07:21.031Z,66.87
2023-09-20T06:08:21.105Z,65.26
2023-09-20T06:09:21.039Z,67.19
2023-09-20T06:10:21.018Z,65.90
2023-09-20T06:11:21.120Z,66.39
2023-09-20T06:12:21.004Z,65.26
2023-09-20T06:13:20.993Z,65.58
2023-09-20T06:14:21.004Z,65.26
2023-09-20T06:15:21.010Z,66.39
2023-09-20T06:16:20.978Z,66.39
2023-09-20T06:17:21.031Z,66.06
2023-09-20T06:18:21.023Z,66.06
2023-09-20T06:19:21.032Z,66.39
2023-09-20T06:20:21.052Z,65.26
2023-09-20T06:21:20.901Z,64.45
2023-09-20T06:22:20.886Z,65.74
2023-09-20T06:23:21.089Z,64.78
2023-09-20T06:24:20.883Z,65.58
2023-09-20T06:25:20.863Z,70.90
2023-09-20T06:26:20.884Z,70.74
2023-09-20T06:27:20.855Z,71.70
2023-09-20T06:28:20.871Z,70.90
2023-09-20T06:29:20.840Z,71.54
2023-09-20T06:30:20.810Z,72.51
2023-09-20T06:31:20.836Z,69.77
2023-09-20T06:32:20.814Z,70.58
2023-09-20T06:33:23.638Z,68.48
2023-09-20T06:34:21.729Z,65.26
2023-09-20T06:35:22.449Z,68.48
2023-09-20T06:36:27.826Z,64.78
2023-09-20T06:37:33.877Z,64.94
2023-09-20T06:38:29.868Z,65.42
2023-09-20T06:39:23.481Z,64.94
2023-09-20T06:40:21.050Z,64.45
2023-09-20T06:41:24.136Z,63.65
2023-09-20T06:42:22.929Z,64.13
2023-09-20T06:43:21.486Z,65.26
2023-09-20T06:44:20.955Z,63.65
2023-09-20T06:45:21.814Z,63.49
2023-09-20T06:46:21.310Z,65.10
2023-09-20T06:47:21.793Z,65.42
2023-09-20T06:48:21.556Z,66.23
2023-09-20T06:49:22.444Z,64.29
2023-09-20T06:50:21.831Z,63.65
2023-09-20T06:51:24.389Z,65.26
2023-09-20T06:52:28.658Z,65.90
2023-09-20T06:53:23.373Z,64.29
2023-09-20T06:54:22.255Z,63.16
2023-09-20T06:55:22.812Z,64.94
2023-09-20T06:56:20.617Z,65.74
2023-09-20T06:57:20.651Z,64.78
2023-09-20T06:58:21.181Z,64.29
2023-09-20T06:59:20.592Z,63.97
2023-09-20T07:00:20.539Z,64.45
2023-09-20T07:01:20.609Z,65.10
2023-09-20T07:02:20.556Z,68.80
2023-09-20T07:03:20.567Z,68.80
2023-09-20T07:04:20.528Z,67.68
2023-09-20T07:05:20.532Z,66.55
2023-09-20T07:06:20.511Z,69.77
2023-09-20T07:07:20.445Z,71.54
2023-09-20T07:08:20.457Z,67.19
2023-09-20T07:09:20.435Z,63.81
2023-09-20T07:10:20.445Z,66.71
2023-09-20T07:11:20.485Z,63.00
2023-09-20T07:12:20.423Z,64.94
2023-09-20T07:13:20.437Z,65.58
2023-09-20T07:14:20.403Z,64.13
2023-09-20T07:15:20.395Z,66.87
2023-09-20T07:16:20.495Z,64.45
2023-09-20T07:17:20.421Z,63.33
2023-09-20T07:18:20.438Z,63.97
2023-09-20T07:19:21.970Z,64.13
2023-09-20T07:20:22.390Z,64.78
2023-09-20T07:21:20.331Z,64.29
2023-09-20T07:22:20.312Z,64.61
2023-09-20T07:23:20.341Z,63.00
2023-09-20T07:24:20.301Z,62.84
2023-09-20T07:25:20.320Z,65.10
2023-09-20T07:26:21.041Z,63.65
2023-09-20T07:27:20.414Z,64.29
2023-09-20T07:28:20.349Z,63.81
2023-09-20T07:29:20.988Z,63.49
2023-09-20T07:30:20.242Z,63.00
2023-09-20T07:31:20.239Z,61.87
2023-09-20T07:32:21.220Z,61.87
2023-09-20T07:33:20.683Z,62.68
2023-09-20T07:34:20.202Z,63.33
2023-09-20T07:35:20.212Z,63.65
2023-09-20T07:37:21.187Z,61.23
2023-09-20T07:38:20.204Z,62.68
2023-09-20T07:39:20.204Z,62.52
2023-09-20T07:40:20.124Z,60.75
2023-09-20T07:41:20.378Z,62.04
2023-09-20T07:42:20.107Z,63.33
2023-09-20T07:43:29.133Z,61.87
2023-09-20T07:44:22.175Z,62.84
2023-09-20T07:45:20.081Z,62.36
2023-09-20T07:46:20.120Z,61.87
2023-09-20T07:47:20.122Z,63.49
2023-09-20T07:48:20.063Z,64.78
2023-09-20T07:49:20.083Z,64.13
2023-09-20T07:50:20.099Z,64.29
2023-09-20T07:51:20.008Z,62.36
2023-09-20T07:52:20.028Z,63.33
2023-09-20T07:53:20.154Z,63.49
2023-09-20T07:54:19.984Z,64.29
2023-09-20T07:55:19.993Z,64.13
2023-09-20T07:56:20.075Z,64.78
2023-09-20T07:57:19.972Z,63.33
2023-09-20T07:58:19.952Z,63.65
2023-09-20T07:59:19.957Z,63.81
2023-09-20T08:00:19.955Z,64.61
2023-09-20T08:01:20.143Z,63.49
2023-09-20T08:02:20.037Z,63.16
2023-09-20T08:03:19.972Z,63.65
2023-09-20T08:04:19.926Z,64.13
2023-09-20T08:05:19.904Z,63.33
2023-09-20T08:06:19.906Z,64.61
2023-09-20T08:07:19.880Z,64.45
2023-09-20T08:08:19.893Z,66.39
2023-09-20T08:09:19.859Z,64.94
2023-09-20T08:10:19.820Z,62.20
2023-09-20T08:11:21.682Z,60.91
2023-09-20T08:12:20.807Z,62.52
2023-09-20T08:13:19.824Z,64.61
2023-09-20T08:14:19.845Z,63.49
2023-09-20T08:15:19.795Z,63.33
2023-09-20T08:16:19.912Z,65.42
2023-09-20T08:17:19.886Z,66.39
2023-09-20T08:18:19.814Z,68.16
2023-09-20T08:19:19.778Z,68.48
2023-09-20T08:20:20.787Z,63.97
2023-09-20T08:21:19.753Z,69.29
2023-09-20T08:22:19.716Z,63.16
2023-09-20T08:23:19.707Z,63.00
2023-09-20T08:24:20.718Z,70.58
2023-09-20T08:25:19.700Z,67.84
2023-09-20T08:26:19.703Z,62.36
2023-09-20T08:27:19.681Z,63.65
2023-09-20T08:28:19.670Z,63.00
2023-09-20T08:29:19.667Z,63.16
2023-09-20T08:30:19.656Z,67.19
2023-09-20T08:31:19.748Z,61.55
2023-09-20T08:32:19.618Z,62.20
2023-09-20T08:33:19.666Z,62.04
2023-09-20T08:34:19.638Z,62.52
2023-09-20T08:35:20.094Z,64.94
2023-09-20T08:36:19.595Z,62.68
2023-09-20T08:37:19.572Z,64.29
2023-09-20T08:38:19.618Z,64.78
2023-09-20T08:39:32.335Z,62.36
2023-09-20T08:40:21.535Z,62.68
2023-09-20T08:41:19.586Z,63.16
2023-09-20T08:42:20.539Z,63.16
2023-09-20T08:43:19.568Z,62.68
2023-09-20T08:44:19.567Z,63.49
2023-09-20T08:45:19.494Z,65.90
2023-09-20T08:46:19.551Z,63.81
2023-09-20T08:47:19.527Z,62.84
2023-09-20T08:48:19.494Z,63.16
2023-09-20T08:49:19.456Z,63.16
2023-09-20T08:50:19.470Z,65.10
2023-09-20T08:51:19.430Z,63.65
2023-09-20T08:52:19.408Z,64.61
2023-09-20T08:53:19.476Z,64.78
2023-09-20T08:54:19.498Z,62.68
2023-09-20T08:55:19.412Z,62.52
2023-09-20T08:56:19.551Z,65.10
2023-09-20T08:57:19.434Z,63.97
2023-09-20T08:58:19.372Z,65.10
2023-09-20T08:59:19.386Z,64.29
2023-09-20T09:00:19.339Z,63.81
2023-09-20T09:01:19.364Z,63.00
2023-09-20T09:02:19.372Z,64.13
2023-09-20T09:03:19.396Z,63.33
2023-09-20T09:04:19.366Z,64.78
2023-09-20T09:05:19.351Z,63.97
2023-09-20T09:06:19.289Z,64.45
2023-09-20T09:07:19.314Z,63.16
2023-09-20T09:08:19.280Z,62.68
2023-09-20T09:09:19.373Z,64.45
2023-09-20T09:10:19.339Z,64.78
2023-09-20T09:11:19.273Z,63.97
2023-09-20T09:12:19.269Z,64.45
2023-09-20T09:13:19.210Z,64.45
2023-09-20T09:14:19.233Z,62.68
2023-09-20T09:15:19.256Z,63.49
2023-09-20T09:16:19.233Z,63.16
2023-09-20T09:17:19.242Z,63.49
2023-09-20T09:18:21.570Z,63.16
2023-09-20T09:19:20.150Z,63.97
2023-09-20T09:20:19.242Z,63.65
2023-09-20T09:21:19.149Z,62.68
2023-09-20T09:22:19.121Z,64.61
2023-09-20T09:23:19.123Z,65.26
2023-09-20T09:24:19.117Z,63.65
2023-09-20T09:25:19.101Z,65.26
2023-09-20T09:26:19.133Z,65.26
2023-09-20T09:27:19.068Z,65.42
2023-09-20T09:28:19.068Z,64.78
2023-09-20T09:29:19.079Z,64.45
2023-09-20T09:30:19.117Z,63.49
2023-09-20T09:31:19.156Z,63.16
2023-09-20T09:32:19.108Z,63.33
2023-09-20T09:33:19.169Z,63.16
2023-09-20T09:34:19.001Z,62.20
2023-09-20T09:35:21.551Z,62.68
2023-09-20T09:36:21.052Z,61.23
2023-09-20T09:37:18.981Z,61.39
2023-09-20T09:38:18.994Z,61.87
2023-09-20T09:39:33.922Z,64.13
2023-09-20T09:40:21.079Z,61.39
2023-09-20T09:41:18.965Z,62.20
2023-09-20T09:42:18.939Z,63.00
2023-09-20T09:43:18.922Z,63.65
2023-09-20T09:44:18.947Z,61.87
2023-09-20T09:45:18.923Z,62.84
2023-09-20T09:46:18.912Z,62.52
2023-09-20T09:47:18.932Z,63.16
2023-09-20T09:48:19.029Z,62.52
2023-09-20T09:49:18.893Z,62.04
2023-09-20T09:50:18.927Z,62.36
2023-09-20T09:51:18.931Z,63.49
2023-09-20T09:52:18.841Z,61.87
2023-09-20T09:53:18.867Z,62.68
2023-09-20T09:54:18.850Z,62.84
2023-09-20T09:55:18.814Z,94.42
2023-09-20T09:56:18.831Z,94.91
2023-09-20T09:57:18.990Z,91.52
2023-09-20T09:58:18.821Z,90.72
2023-09-20T09:59:18.823Z,62.84
2023-09-20T10:00:18.765Z,63.16
2023-09-20T10:01:18.794Z,62.84
2023-09-20T10:02:18.812Z,63.33
2023-09-20T10:03:20.002Z,62.36
2023-09-20T10:04:18.833Z,60.75
2023-09-20T10:05:18.769Z,62.52
2023-09-20T10:06:18.713Z,61.23
2023-09-20T10:07:18.726Z,62.52
2023-09-20T10:08:18.731Z,61.55
2023-09-20T10:09:18.678Z,62.04
2023-09-20T10:10:18.742Z,61.39
2023-09-20T10:11:18.707Z,62.36
2023-09-20T10:12:18.678Z,62.20
2023-09-20T10:13:18.640Z,63.16
2023-09-20T10:14:18.645Z,62.84
2023-09-20T10:15:18.607Z,62.20
2023-09-20T10:16:18.628Z,62.36
2023-09-20T10:17:18.621Z,62.04
2023-09-20T10:18:18.631Z,63.16
2023-09-20T10:19:18.565Z,62.68
2023-09-20T10:20:18.573Z,63.81
2023-09-20T10:21:18.559Z,61.87
2023-09-20T10:22:19.553Z,63.00
2023-09-20T10:23:18.558Z,62.04
2023-09-20T10:24:18.656Z,61.55
2023-09-20T10:25:18.548Z,61.71
2023-09-20T10:26:18.607Z,62.04
2023-09-20T10:27:50.397Z,61.07
2023-09-20T10:28:18.502Z,61.55
2023-09-20T10:29:18.486Z,62.04
2023-09-20T10:30:18.469Z,62.68
2023-09-20T10:31:18.988Z,61.39
2023-09-20T10:32:18.471Z,61.55
2023-09-20T10:33:18.640Z,63.00
2023-09-20T10:34:18.484Z,61.23
2023-09-20T10:35:18.457Z,62.68
2023-09-20T10:36:18.407Z,62.36
2023-09-20T10:37:18.385Z,61.39
2023-09-20T10:38:18.403Z,60.42
2023-09-20T10:39:18.471Z,62.36
2023-09-20T10:40:18.373Z,61.55
2023-09-20T10:41:18.571Z,62.20
2023-09-20T10:42:18.327Z,60.42
2023-09-20T10:43:18.311Z,60.75
2023-09-20T10:44:18.320Z,63.33
2023-09-20T10:45:18.330Z,62.20
2023-09-20T10:46:18.290Z,61.55
2023-09-20T10:47:18.288Z,61.71
2023-09-20T10:48:18.427Z,60.59
2023-09-20T10:49:18.275Z,61.71
2023-09-20T10:50:18.289Z,60.75
2023-09-20T10:51:18.241Z,61.39
2023-09-20T10:52:18.239Z,59.78
2023-09-20T10:53:18.325Z,81.05
2023-09-20T10:54:18.229Z,61.23
2023-09-20T10:55:18.197Z,61.71
2023-09-20T10:56:19.227Z,63.16
2023-09-20T10:57:18.179Z,62.36
2023-09-20T10:58:18.193Z,64.78
2023-09-20T10:59:18.196Z,61.55
2023-09-20T11:00:18.182Z,62.04
2023-09-20T11:01:18.210Z,59.62
2023-09-20T11:02:18.267Z,59.30
2023-09-20T11:03:18.302Z,61.71
2023-09-20T11:04:18.112Z,61.07
2023-09-20T11:05:18.224Z,61.07
2023-09-20T11:06:18.157Z,62.20
2023-09-20T11:07:18.081Z,61.71
2023-09-20T11:08:18.099Z,63.16
2023-09-20T11:09:18.064Z,61.07
2023-09-20T11:10:18.049Z,59.30
2023-09-20T11:11:18.056Z,58.65
2023-09-20T11:12:18.054Z,60.42
2023-09-20T11:13:18.063Z,60.26
2023-09-20T11:14:18.021Z,62.84
2023-09-20T11:15:18.037Z,62.20
2023-09-20T11:16:18.038Z,61.23
2023-09-20T11:17:18.076Z,60.42
2023-09-20T11:18:18.062Z,58.97
2023-09-20T11:19:17.997Z,61.23
2023-09-20T11:20:18.033Z,60.42
2023-09-20T11:21:17.951Z,62.52
2023-09-20T11:22:17.952Z,59.62
2023-09-20T11:23:18.064Z,61.07
2023-09-20T11:24:17.949Z,58.97
2023-09-20T11:25:17.950Z,61.55
2023-09-20T11:26:17.982Z,63.16
2023-09-20T11:27:17.902Z,61.55
2023-09-20T11:28:18.892Z,61.23
2023-09-20T11:29:18.152Z,60.75
2023-09-20T11:30:17.983Z,62.36
2023-09-20T11:31:17.911Z,63.00
2023-09-20T11:32:17.884Z,59.62
2023-09-20T11:33:17.879Z,61.39
2023-09-20T11:34:17.812Z,60.42
2023-09-20T11:35:17.879Z,62.84
2023-09-20T11:36:17.824Z,62.68
2023-09-20T11:37:17.817Z,61.71
2023-09-20T11:38:17.804Z,60.75
2023-09-20T11:39:17.764Z,59.94
2023-09-20T11:40:17.770Z,60.75
2023-09-20T11:41:17.789Z,61.71
2023-09-20T11:42:17.744Z,61.39
2023-09-20T11:43:17.719Z,61.55
2023-09-20T11:44:18.784Z,61.23
2023-09-20T11:45:44.416Z,61.71
2023-09-20T11:46:19.755Z,63.00
2023-09-20T11:47:17.703Z,59.30
2023-09-20T11:48:17.745Z,59.62
2023-09-20T11:49:17.676Z,61.07
2023-09-20T11:50:17.710Z,61.55
2023-09-20T11:51:17.645Z,61.55
2023-09-20T11:52:17.642Z,59.62
2023-09-20T11:53:17.664Z,63.00
2023-09-20T11:54:17.640Z,70.09
2023-09-20T11:55:17.614Z,74.28
2023-09-20T11:56:17.608Z,73.80
2023-09-20T11:57:18.592Z,75.89
2023-09-20T11:58:17.577Z,68.00
2023-09-20T11:59:17.613Z,61.23
2023-09-20T12:00:17.563Z,60.75
2023-09-20T12:01:17.593Z,59.94
2023-09-20T12:02:17.623Z,59.94
2023-09-20T12:03:17.657Z,67.68
2023-09-20T12:04:17.675Z,62.04
2023-09-20T12:05:17.521Z,60.26
2023-09-20T12:06:17.507Z,76.38
2023-09-20T12:07:17.492Z,61.55
2023-09-20T12:08:17.511Z,61.23
2023-09-20T12:09:17.488Z,63.97
2023-09-20T12:10:17.468Z,61.07
2023-09-20T12:11:17.482Z,63.00
2023-09-20T12:12:17.445Z,61.55
2023-09-20T12:13:17.522Z,62.36
2023-09-20T12:14:17.463Z,62.68
2023-09-20T12:15:17.412Z,62.52
2023-09-20T12:16:18.439Z,61.39
2023-09-20T12:17:17.417Z,60.91
2023-09-20T12:18:17.445Z,63.97
2023-09-20T12:19:17.368Z,63.65
2023-09-20T12:20:17.449Z,62.36
2023-09-20T12:21:17.356Z,61.71
2023-09-20T12:22:17.343Z,61.07
2023-09-20T12:23:17.389Z,62.20
2023-09-20T12:24:17.347Z,63.16
2023-09-20T12:25:17.309Z,61.55
2023-09-20T12:26:17.339Z,61.39
2023-09-20T12:27:18.126Z,58.97
2023-09-20T12:28:17.306Z,62.68
2023-09-20T12:29:17.291Z,62.84
2023-09-20T12:30:17.271Z,61.39
2023-09-20T12:31:17.315Z,63.49
2023-09-20T12:32:17.276Z,62.20
2023-09-20T12:33:17.272Z,61.07
2023-09-20T12:34:17.236Z,60.10
2023-09-20T12:35:17.235Z,61.23
2023-09-20T12:36:17.209Z,61.71
2023-09-20T12:37:17.218Z,63.16
2023-09-20T12:38:17.200Z,61.55
2023-09-20T12:39:17.175Z,61.55
2023-09-20T12:40:17.226Z,62.68
2023-09-20T12:41:17.177Z,63.00
2023-09-20T12:42:17.169Z,61.55
2023-09-20T12:43:17.239Z,67.03
2023-09-20T12:44:17.160Z,62.52
2023-09-20T12:45:17.170Z,62.20
2023-09-20T12:46:17.160Z,62.52
2023-09-20T12:47:17.134Z,61.55
2023-09-20T12:48:17.216Z,61.87
2023-09-20T12:49:17.078Z,62.68
2023-09-20T12:50:17.084Z,62.04
2023-09-20T12:51:17.079Z,60.26
2023-09-20T12:52:17.053Z,59.62
2023-09-20T12:53:17.078Z,59.94